createdAt,value
2023-02-09T00:00:18.628Z,8.38
2023-02-09T00:02:45.707Z,8.85
2023-02-09T00:05:12.924Z,9.00
2023-02-09T00:07:40.016Z,8.27
2023-02-09T00:10:07.261Z,10.75
2023-02-09T00:12:52.886Z,17.48
2023-02-09T00:15:19.959Z,11.50
2023-02-09T00:17:46.984Z,9.45
2023-02-09T00:20:14.054Z,15.43
2023-02-09T00:22:41.337Z,9.82
2023-02-09T00:25:08.373Z,9.23
2023-02-09T00:27:35.858Z,8.75
2023-02-09T00:30:03.118Z,11.23
2023-02-09T00:32:32.593Z,9.80
2023-02-09T00:34:59.684Z,9.52
2023-02-09T00:37:26.729Z,11.02
2023-02-09T00:39:53.814Z,7.90
2023-02-09T00:42:23.176Z,8.85
2023-02-09T00:44:50.473Z,13.45
2023-02-09T00:47:17.541Z,9.75
2023-02-09T00:49:44.621Z,10.68
2023-02-09T00:52:11.868Z,8.57
2023-02-09T00:54:39.008Z,9.25
2023-02-09T00:57:06.263Z,6.93
2023-02-09T00:59:35.169Z,11.30
2023-02-09T01:02:02.925Z,12.85
2023-02-09T01:04:30.040Z,9.95
2023-02-09T01:06:57.217Z,9.75
2023-02-09T01:09:25.077Z,8.35
2023-02-09T01:11:52.158Z,12.52
2023-02-09T01:14:19.250Z,10.88
2023-02-09T01:16:46.493Z,6.00
2023-02-09T01:19:14.153Z,9.82
2023-02-09T01:21:42.453Z,5.85
2023-02-09T01:24:13.757Z,10.85
2023-02-09T01:26:41.738Z,7.78
2023-02-09T01:29:13.131Z,8.75
2023-02-09T01:31:40.733Z,12.25
2023-02-09T01:34:07.973Z,8.45
2023-02-09T01:36:35.050Z,9.45
2023-02-09T01:39:02.950Z,9.40
2023-02-09T01:41:31.549Z,10.52
2023-02-09T01:44:07.114Z,7.68
2023-02-09T01:46:36.247Z,9.02
2023-02-09T01:49:21.774Z,7.65
2023-02-09T01:51:55.453Z,10.82
2023-02-09T01:57:12.168Z,9.15
2023-02-09T01:59:41.940Z,9.20
2023-02-09T02:02:09.867Z,9.98
2023-02-09T02:04:38.746Z,9.32
2023-02-09T02:07:14.277Z,9.05
2023-02-09T02:09:42.967Z,7.90
2023-02-09T02:12:10.469Z,6.93
2023-02-09T02:14:39.737Z,9.95
2023-02-09T02:17:40.843Z,9.25
2023-02-09T02:20:16.699Z,9.02
2023-02-09T02:23:03.596Z,14.15
2023-02-09T02:25:45.644Z,10.55
2023-02-09T02:28:30.853Z,9.20
2023-02-09T02:31:16.559Z,6.38
2023-02-09T02:34:04.697Z,11.25
2023-02-09T02:36:44.963Z,8.10
2023-02-09T02:39:22.200Z,8.82
2023-02-09T02:42:07.547Z,9.57
2023-02-09T02:44:40.885Z,11.32
2023-02-09T02:47:13.673Z,11.27
2023-02-09T02:49:48.992Z,8.73
2023-02-09T02:52:16.231Z,8.60
2023-02-09T02:54:49.197Z,8.80
2023-02-09T02:57:23.440Z,9.63
2023-02-09T02:59:57.306Z,12.32
2023-02-09T03:02:34.016Z,8.93
2023-02-09T03:05:03.293Z,14.00
2023-02-09T03:07:30.409Z,10.25
2023-02-09T03:09:57.520Z,13.45
2023-02-09T03:12:36.418Z,10.13
2023-02-09T03:15:32.353Z,7.38
2023-02-09T03:18:04.022Z,9.80
2023-02-09T03:20:59.231Z,8.40
2023-02-09T03:23:34.389Z,13.25
2023-02-09T03:26:12.819Z,9.10
2023-02-09T03:28:43.539Z,10.73
2023-02-09T03:31:11.415Z,7.78
2023-02-09T03:33:39.947Z,12.48
2023-02-09T03:36:12.814Z,9.20
2023-02-09T03:38:39.937Z,10.82
2023-02-09T03:41:08.077Z,9.23
2023-02-09T03:43:54.071Z,9.32
2023-02-09T03:46:21.173Z,8.25
2023-02-09T03:48:49.996Z,7.45
2023-02-09T03:51:17.058Z,9.27
2023-02-09T03:53:44.070Z,7.25
2023-02-09T03:56:11.161Z,8.55
2023-02-09T03:58:38.224Z,12.80
2023-02-09T04:01:07.733Z,9.23
2023-02-09T04:03:36.537Z,11.15
2023-02-09T04:06:04.096Z,16.95
2023-02-09T04:08:33.221Z,11.95
2023-02-09T04:11:00.358Z,11.27
2023-02-09T04:13:27.625Z,8.98
2023-02-09T04:15:55.372Z,15.52
2023-02-09T04:18:22.490Z,8.25
2023-02-09T04:20:49.499Z,10.20
2023-02-09T04:23:17.302Z,13.65
2023-02-09T04:25:45.123Z,15.63
2023-02-09T04:28:12.607Z,9.38
2023-02-09T04:30:39.868Z,7.60
2023-02-09T04:33:06.960Z,10.35
2023-02-09T04:35:33.958Z,10.68
2023-02-09T04:38:01.021Z,8.60
2023-02-09T04:40:28.102Z,8.35
2023-02-09T04:42:55.139Z,8.38
2023-02-09T04:45:22.220Z,12.02
2023-02-09T04:47:49.230Z,9.32
2023-02-09T04:50:17.368Z,8.25
2023-02-09T04:52:44.431Z,12.85
2023-02-09T04:55:11.448Z,8.95
2023-02-09T04:57:57.435Z,11.20
2023-02-09T05:00:24.971Z,8.38
2023-02-09T05:02:52.062Z,10.88
2023-02-09T05:05:19.722Z,8.95
2023-02-09T05:07:46.874Z,15.60
2023-02-09T05:10:14.436Z,45.33
2023-02-09T05:12:41.569Z,28.80
2023-02-09T05:15:09.316Z,37.13
2023-02-09T05:17:37.284Z,11.82
2023-02-09T05:20:05.052Z,31.63
2023-02-09T05:22:32.155Z,10.10
2023-02-09T05:24:59.450Z,12.82
2023-02-09T05:27:26.539Z,10.80
2023-02-09T05:29:53.621Z,11.73
2023-02-09T05:32:20.831Z,48.88
2023-02-09T05:34:47.939Z,27.15
2023-02-09T05:37:15.153Z,29.55
2023-02-09T05:39:42.186Z,21.05
2023-02-09T05:42:17.206Z,13.02
2023-02-09T05:44:49.053Z,11.13
2023-02-09T05:47:18.784Z,11.23
2023-02-09T05:49:46.006Z,16.67
2023-02-09T05:52:14.399Z,8.70
2023-02-09T05:54:41.557Z,11.13
2023-02-09T05:57:08.843Z,8.15
2023-02-09T05:59:35.868Z,9.00
2023-02-09T06:02:02.947Z,10.30
2023-02-09T06:04:30.563Z,8.15
2023-02-09T06:06:58.310Z,8.85
2023-02-09T06:09:25.561Z,7.07
2023-02-09T06:11:52.708Z,8.10
2023-02-09T06:14:20.051Z,14.27
2023-02-09T06:16:47.068Z,7.82
2023-02-09T06:19:15.865Z,7.22
2023-02-09T06:21:44.527Z,9.95
2023-02-09T06:24:12.524Z,10.35
2023-02-09T06:26:41.710Z,7.78
2023-02-09T06:29:10.339Z,10.82
2023-02-09T06:31:38.303Z,8.63
2023-02-09T06:34:05.820Z,10.20
2023-02-09T06:36:33.176Z,7.43
2023-02-09T06:39:01.052Z,11.50
2023-02-09T06:41:28.538Z,10.80
2023-02-09T06:43:55.620Z,9.43
2023-02-09T06:46:22.778Z,9.98
2023-02-09T06:48:50.495Z,9.50
2023-02-09T06:51:17.970Z,14.18
2023-02-09T06:53:45.433Z,11.00
2023-02-09T06:56:13.341Z,10.88
2023-02-09T06:58:41.761Z,11.25
2023-02-09T07:01:15.460Z,15.20
2023-02-09T07:03:43.461Z,12.82
2023-02-09T07:06:15.039Z,20.05
2023-02-09T07:08:43.240Z,13.55
2023-02-09T07:11:13.474Z,8.35
2023-02-09T07:13:41.722Z,11.07
2023-02-09T07:16:11.649Z,11.15
2023-02-09T07:18:40.287Z,10.77
2023-02-09T07:21:11.405Z,21.10
2023-02-09T07:23:39.500Z,26.73
2023-02-09T07:26:15.614Z,28.35
2023-02-09T07:28:42.947Z,48.35
2023-02-09T07:31:13.175Z,21.05
2023-02-09T07:33:42.030Z,22.10
2023-02-09T07:36:12.380Z,19.05
2023-02-09T07:38:41.304Z,12.88
2023-02-09T07:41:15.039Z,12.95
2023-02-09T07:43:42.242Z,10.15
2023-02-09T07:46:10.327Z,10.80
2023-02-09T07:48:37.850Z,9.20
2023-02-09T07:51:05.606Z,11.38
2023-02-09T07:53:33.590Z,10.95
2023-02-09T07:56:00.695Z,8.48
2023-02-09T07:58:28.337Z,16.58
2023-02-09T08:00:55.910Z,13.35
2023-02-09T08:03:24.592Z,14.15
2023-02-09T08:06:04.156Z,16.63
2023-02-09T08:08:31.340Z,18.35
2023-02-09T08:11:00.194Z,12.13
2023-02-09T08:13:31.442Z,13.68
2023-02-09T08:16:04.816Z,7.95
2023-02-09T08:18:40.414Z,10.60
2023-02-09T08:21:11.486Z,11.35
2023-02-09T08:23:41.456Z,7.63
2023-02-09T08:26:11.404Z,11.27
2023-02-09T08:28:44.973Z,12.02
2023-02-09T08:31:17.719Z,12.93
2023-02-09T08:33:46.681Z,9.15
2023-02-09T08:36:15.491Z,11.57
2023-02-09T08:38:42.614Z,8.27
2023-02-09T08:41:13.564Z,24.95
2023-02-09T08:43:41.618Z,10.90
2023-02-09T08:46:12.877Z,10.93
2023-02-09T08:48:43.799Z,11.43
2023-02-09T08:51:13.150Z,12.80
2023-02-09T08:53:43.342Z,14.45
2023-02-09T08:56:13.111Z,11.68
2023-02-09T08:58:43.029Z,15.75
2023-02-09T09:01:11.276Z,11.35
2023-02-09T09:03:38.376Z,14.52
2023-02-09T09:06:07.366Z,11.43
2023-02-09T09:08:36.436Z,8.98
2023-02-09T09:11:04.023Z,11.15
2023-02-09T09:13:31.148Z,10.25
2023-02-09T09:15:58.359Z,14.15
2023-02-09T09:18:26.149Z,10.35
2023-02-09T09:20:53.394Z,10.98
2023-02-09T09:23:21.291Z,13.65
2023-02-09T09:25:48.861Z,8.55
2023-02-09T09:28:16.832Z,9.13
2023-02-09T09:30:44.054Z,14.40
2023-02-09T09:33:11.964Z,9.63
2023-02-09T09:35:39.156Z,10.07
2023-02-09T09:38:07.264Z,13.05
2023-02-09T09:40:37.024Z,11.18
2023-02-09T09:43:32.951Z,11.10
2023-02-09T09:46:01.654Z,14.75
2023-02-09T09:48:42.575Z,16.92
2023-02-09T09:51:42.097Z,11.20
2023-02-09T09:54:17.659Z,13.52
2023-02-09T09:56:44.853Z,15.00
2023-02-09T09:59:29.370Z,10.57
2023-02-09T10:02:01.401Z,15.52
2023-02-09T10:04:28.899Z,19.20
2023-02-09T10:07:12.433Z,11.88
2023-02-09T10:09:45.687Z,9.40
2023-02-09T10:12:24.812Z,12.30
2023-02-09T10:14:51.889Z,9.13
2023-02-09T10:17:18.923Z,10.32
2023-02-09T10:20:06.330Z,11.93
2023-02-09T10:22:33.633Z,16.63
2023-02-09T10:25:02.509Z,13.30
2023-02-09T10:27:31.220Z,12.30
2023-02-09T10:30:18.489Z,13.85
2023-02-09T10:32:45.591Z,12.95
2023-02-09T10:35:35.935Z,12.77
2023-02-09T10:38:04.137Z,13.57
2023-02-09T10:40:36.414Z,22.02
2023-02-09T10:43:07.408Z,18.27
2023-02-09T10:45:40.452Z,12.20
2023-02-09T10:48:13.489Z,13.45
2023-02-09T10:50:49.592Z,12.85
2023-02-09T10:53:29.885Z,17.17
2023-02-09T10:56:06.824Z,18.95
2023-02-09T10:58:36.527Z,15.10
2023-02-09T11:01:10.425Z,15.18
2023-02-09T11:03:56.449Z,13.70
2023-02-09T11:06:24.202Z,15.18
2023-02-09T11:09:01.866Z,11.35
2023-02-09T11:11:41.482Z,12.23
2023-02-09T11:14:17.009Z,14.80
2023-02-09T11:16:53.859Z,15.55
2023-02-09T11:19:22.553Z,16.85
2023-02-09T11:22:08.174Z,18.60
2023-02-09T11:24:47.244Z,14.70
2023-02-09T11:27:51.353Z,19.33
2023-02-09T11:30:30.467Z,20.65
2023-02-09T11:33:25.935Z,14.77
2023-02-09T11:36:01.695Z,16.42
2023-02-09T11:38:48.944Z,15.70
2023-02-09T11:41:49.100Z,18.02
2023-02-09T11:44:44.226Z,16.15
2023-02-09T11:47:18.399Z,21.92
2023-02-09T11:49:52.337Z,18.75
2023-02-09T11:52:36.219Z,21.83
2023-02-09T11:55:21.814Z,15.45
2023-02-09T11:57:54.426Z,21.40
2023-02-09T12:00:29.373Z,16.95
2023-02-09T12:03:11.581Z,17.35
2023-02-09T12:05:42.073Z,15.27
2023-02-09T12:08:24.711Z,16.42
2023-02-09T12:11:13.654Z,18.75
2023-02-09T12:13:59.570Z,15.40
2023-02-09T12:16:33.127Z,16.45
2023-02-09T12:19:05.833Z,17.17
2023-02-09T12:21:38.208Z,21.80
2023-02-09T12:24:32.757Z,18.50
2023-02-09T12:26:59.828Z,16.80
2023-02-09T12:29:32.697Z,16.23
2023-02-09T12:32:08.653Z,16.90
2023-02-09T12:34:50.661Z,13.75
2023-02-09T12:37:28.463Z,15.80
2023-02-09T12:40:04.098Z,14.73
2023-02-09T12:43:01.869Z,22.65
2023-02-09T12:45:36.999Z,21.33
2023-02-09T12:48:12.184Z,17.08
2023-02-09T12:50:52.401Z,17.00
2023-02-09T12:53:22.205Z,18.27
2023-02-09T12:56:26.935Z,24.80
2023-02-09T12:59:24.120Z,21.80
2023-02-09T13:02:05.899Z,21.75
2023-02-09T13:04:41.550Z,18.65
2023-02-09T13:07:25.298Z,15.13
2023-02-09T13:09:54.606Z,17.90
2023-02-09T13:12:35.897Z,17.75
2023-02-09T13:15:13.171Z,19.00
2023-02-09T13:18:33.220Z,19.88
2023-02-09T13:21:26.856Z,19.05
2023-02-09T13:24:11.549Z,18.73
2023-02-09T13:26:56.388Z,15.90
2023-02-09T13:29:24.619Z,18.13
2023-02-09T13:31:58.047Z,21.98
2023-02-09T13:35:06.550Z,22.33
2023-02-09T13:37:47.681Z,20.55
2023-02-09T13:40:26.733Z,24.27
2023-02-09T13:42:58.755Z,16.88
2023-02-09T13:45:26.954Z,18.98
2023-02-09T13:47:55.460Z,18.20
2023-02-09T13:50:30.529Z,18.33
2023-02-09T13:53:11.447Z,25.30
2023-02-09T13:55:45.316Z,23.13
2023-02-09T13:58:18.997Z,23.13
2023-02-09T14:00:51.383Z,20.88
2023-02-09T14:03:27.892Z,21.63
2023-02-09T14:05:57.990Z,26.00
2023-02-09T14:08:26.652Z,22.40
2023-02-09T14:11:00.765Z,23.52
2023-02-09T14:13:56.263Z,19.00
2023-02-09T14:16:25.728Z,17.95
2023-02-09T14:18:56.800Z,20.38
2023-02-09T14:21:26.648Z,21.05
2023-02-09T14:23:56.392Z,17.48
2023-02-09T14:26:26.068Z,25.25
2023-02-09T14:29:06.777Z,21.90
2023-02-09T14:31:35.184Z,24.70
2023-02-09T14:34:02.600Z,19.77
2023-02-09T14:36:33.578Z,20.80
2023-02-09T14:39:05.655Z,25.58
2023-02-09T14:41:34.618Z,28.75
2023-02-09T14:44:07.482Z,22.00
2023-02-09T14:46:55.657Z,21.67
2023-02-09T14:49:23.724Z,23.73
2023-02-09T14:52:01.457Z,25.25
2023-02-09T14:54:32.284Z,29.85
2023-02-09T14:57:01.202Z,29.08
2023-02-09T14:59:28.584Z,28.20
2023-02-09T15:01:55.969Z,27.73
2023-02-09T15:04:23.343Z,20.55
2023-02-09T15:07:00.268Z,25.42
2023-02-09T15:09:34.607Z,24.77
2023-02-09T15:12:05.851Z,27.83
2023-02-09T15:14:37.881Z,21.73
2023-02-09T15:17:18.292Z,29.30
2023-02-09T15:19:46.353Z,31.13
2023-02-09T15:22:16.178Z,27.23
2023-02-09T15:24:44.827Z,28.30
2023-02-09T15:27:25.969Z,23.20
2023-02-09T15:29:56.589Z,24.58
2023-02-09T15:32:25.800Z,22.55
2023-02-09T15:34:53.858Z,28.00
2023-02-09T15:37:32.938Z,29.95
2023-02-09T15:40:04.186Z,29.30
2023-02-09T15:42:50.043Z,29.23
2023-02-09T15:45:41.395Z,26.25
2023-02-09T15:48:08.975Z,24.98
2023-02-09T15:50:47.811Z,29.98
2023-02-09T15:53:18.591Z,30.63
2023-02-09T15:55:46.744Z,26.30
2023-02-09T15:58:16.576Z,30.58
2023-02-09T16:00:43.996Z,26.63
2023-02-09T16:03:17.630Z,35.60
2023-02-09T16:05:46.253Z,34.28
2023-02-09T16:08:26.007Z,27.35
2023-02-09T16:10:54.266Z,31.98
2023-02-09T16:13:21.384Z,30.40
2023-02-09T16:15:48.763Z,35.03
2023-02-09T16:18:15.902Z,30.65
2023-02-09T16:20:49.811Z,29.67
2023-02-09T16:23:21.520Z,36.13
2023-02-09T16:25:51.581Z,29.35
2023-02-09T16:28:20.300Z,32.33
2023-02-09T16:30:58.177Z,31.25
2023-02-09T16:33:26.507Z,28.20
2023-02-09T16:35:59.745Z,34.53
2023-02-09T16:38:27.596Z,38.28
2023-02-09T16:40:55.709Z,28.42
2023-02-09T16:43:23.479Z,30.65
2023-02-09T16:46:02.830Z,36.45
2023-02-09T16:48:34.464Z,38.50
2023-02-09T16:51:02.232Z,28.13
2023-02-09T16:53:37.223Z,37.75
2023-02-09T16:56:10.473Z,28.08
2023-02-09T16:58:38.416Z,29.20
2023-02-09T17:01:14.474Z,31.00
2023-02-09T17:03:43.553Z,43.63
2023-02-09T17:06:17.753Z,30.85
2023-02-09T17:08:44.889Z,35.72
2023-02-09T17:11:23.413Z,33.92
2023-02-09T17:13:50.681Z,30.95
2023-02-09T17:16:27.442Z,37.72
2023-02-09T17:18:58.818Z,31.67
2023-02-09T17:21:34.876Z,35.63
2023-02-09T17:24:05.103Z,33.67
2023-02-09T17:26:32.244Z,39.38
2023-02-09T17:28:59.734Z,37.50
2023-02-09T17:31:30.527Z,44.67
2023-02-09T17:34:01.489Z,35.50
2023-02-09T17:36:30.656Z,44.28
2023-02-09T17:38:59.584Z,40.70
2023-02-09T17:41:41.939Z,32.95
2023-02-09T17:44:35.301Z,36.10
2023-02-09T17:47:15.304Z,35.15
2023-02-09T17:49:42.459Z,39.63
2023-02-09T17:52:18.430Z,34.33
2023-02-09T17:54:45.958Z,37.88
2023-02-09T17:57:17.037Z,36.38
2023-02-09T17:59:44.411Z,36.13
2023-02-09T18:02:16.517Z,40.55
2023-02-09T18:04:44.122Z,38.80
2023-02-09T18:07:20.065Z,46.78
2023-02-09T18:09:47.349Z,44.20
2023-02-09T18:12:20.844Z,55.20
2023-02-09T18:14:48.374Z,40.50
2023-02-09T18:17:15.523Z,37.85
2023-02-09T18:19:42.636Z,46.20
2023-02-09T18:22:13.791Z,41.28
2023-02-09T18:24:41.774Z,47.22
2023-02-09T18:27:14.650Z,44.45
2023-02-09T18:29:41.716Z,46.67
2023-02-09T18:32:12.616Z,44.85
2023-02-09T18:34:40.344Z,37.10
2023-02-09T18:37:07.405Z,35.65
2023-02-09T18:39:41.178Z,35.40
2023-02-09T18:44:38.259Z,40.92
2023-02-09T18:47:05.778Z,42.25
2023-02-09T18:49:32.880Z,47.67
2023-02-09T18:52:00.764Z,45.88
2023-02-09T18:54:29.207Z,40.05
2023-02-09T18:56:56.410Z,38.67
2023-02-09T18:59:27.867Z,51.17
2023-02-09T19:01:55.072Z,49.70
2023-02-09T19:04:22.151Z,45.63
2023-02-09T19:06:49.275Z,40.72
2023-02-09T19:09:16.400Z,53.65
2023-02-09T19:11:43.585Z,38.75
2023-02-09T19:14:29.804Z,43.00
2023-02-09T19:16:56.914Z,56.60
2023-02-09T19:19:24.542Z,60.85
2023-02-09T19:21:52.172Z,43.72
2023-02-09T19:24:19.224Z,43.15
2023-02-09T19:26:46.295Z,41.47
2023-02-09T19:29:14.004Z,46.25
2023-02-09T19:31:41.670Z,44.85
2023-02-09T19:34:08.749Z,43.95
2023-02-09T19:36:35.844Z,58.45
2023-02-09T19:39:03.153Z,50.08
2023-02-09T19:41:30.253Z,49.88
2023-02-09T19:43:58.150Z,51.97
2023-02-09T19:46:25.510Z,40.42
2023-02-09T19:48:53.764Z,59.65
2023-02-09T19:51:21.436Z,48.88
2023-02-09T19:53:49.212Z,45.75
2023-02-09T19:56:19.283Z,51.53
2023-02-09T19:58:46.655Z,44.30
2023-02-09T20:01:13.752Z,46.15
2023-02-09T20:03:41.774Z,41.80
2023-02-09T20:06:12.270Z,45.00
2023-02-09T20:08:40.378Z,44.35
2023-02-09T20:11:11.534Z,56.10
2023-02-09T20:13:40.319Z,57.03
2023-02-09T20:16:13.524Z,43.22
2023-02-09T20:18:43.442Z,46.15
2023-02-09T20:21:12.238Z,56.22
2023-02-09T20:23:40.402Z,46.55
2023-02-09T20:26:12.992Z,51.47
2023-02-09T20:28:41.261Z,66.63
2023-02-09T20:31:09.370Z,59.53
2023-02-09T20:33:38.438Z,51.17
2023-02-09T20:36:07.714Z,56.70
2023-02-09T20:38:36.526Z,45.13
2023-02-09T20:41:10.342Z,70.78
2023-02-09T20:43:57.464Z,48.55
2023-02-09T20:46:45.149Z,42.38
2023-02-09T20:49:14.675Z,41.92
2023-02-09T20:51:42.432Z,46.75
2023-02-09T20:54:10.326Z,47.00
2023-02-09T20:56:38.414Z,54.50
2023-02-09T20:59:06.833Z,44.25
2023-02-09T21:01:36.467Z,46.22
2023-02-09T21:04:03.813Z,38.25
2023-02-09T21:06:30.885Z,52.15
2023-02-09T21:08:58.366Z,44.22
2023-02-09T21:11:25.450Z,45.50
2023-02-09T21:13:52.598Z,48.65
2023-02-09T21:16:20.518Z,53.22
2023-02-09T21:18:47.620Z,43.78
2023-02-09T21:21:17.015Z,48.65
2023-02-09T21:23:45.676Z,52.00
2023-02-09T21:26:16.435Z,43.55
2023-02-09T21:28:43.907Z,44.78
2023-02-09T21:31:17.002Z,40.70
2023-02-09T21:33:44.241Z,44.05
2023-02-09T21:36:11.720Z,41.13
2023-02-09T21:38:41.645Z,39.33
2023-02-09T21:41:34.994Z,37.70
2023-02-09T21:44:02.524Z,46.10
2023-02-09T21:46:29.893Z,48.10
2023-02-09T21:48:57.056Z,47.60
2023-02-09T21:51:24.349Z,67.00
2023-02-09T21:53:51.975Z,51.05
2023-02-09T21:56:19.447Z,56.63
2023-02-09T21:58:46.843Z,44.47
2023-02-09T22:01:14.001Z,38.92
2023-02-09T22:03:44.579Z,38.97
2023-02-09T22:06:11.783Z,43.97
2023-02-09T22:08:38.971Z,36.35
2023-02-09T22:11:06.201Z,37.95
2023-02-09T22:13:33.737Z,34.60
2023-02-09T22:16:06.189Z,35.25
2023-02-09T22:18:33.854Z,34.80
2023-02-09T22:21:01.225Z,46.38
2023-02-09T22:23:28.896Z,52.05
2023-02-09T22:26:00.806Z,40.80
2023-02-09T22:28:29.034Z,47.85
2023-02-09T22:30:56.585Z,35.67
2023-02-09T22:33:24.062Z,37.38
2023-02-09T22:35:51.142Z,46.95
2023-02-09T22:38:18.170Z,32.92
2023-02-09T22:40:45.227Z,25.20
2023-02-09T22:43:12.302Z,30.73
2023-02-09T22:45:40.269Z,35.00
2023-02-09T22:48:07.621Z,31.95
2023-02-09T22:50:35.347Z,38.33
2023-02-09T22:53:02.648Z,27.63
2023-02-09T22:55:29.715Z,28.15
2023-02-09T22:57:56.776Z,30.08
2023-02-09T23:00:23.909Z,29.25
2023-02-09T23:02:51.070Z,35.85
2023-02-09T23:05:18.203Z,36.78
2023-02-09T23:07:46.311Z,28.63
2023-02-09T23:10:13.756Z,27.35
2023-02-09T23:12:42.553Z,32.42
2023-02-09T23:15:10.440Z,33.55
2023-02-09T23:17:37.546Z,28.45
2023-02-09T23:20:04.811Z,26.67
2023-02-09T23:22:31.855Z,20.17
2023-02-09T23:25:01.500Z,27.17
2023-02-09T23:27:29.235Z,25.10
2023-02-09T23:29:56.280Z,26.27
2023-02-09T23:32:23.324Z,22.65
2023-02-09T23:34:50.414Z,19.23
2023-02-09T23:37:23.678Z,20.75
2023-02-09T23:40:01.983Z,23.42
2023-02-09T23:42:29.337Z,21.23
2023-02-09T23:44:56.475Z,21.33
2023-02-09T23:47:23.531Z,20.25
2023-02-09T23:49:50.688Z,22.13
2023-02-09T23:52:17.791Z,33.10
2023-02-09T23:54:44.849Z,25.10
2023-02-09T23:57:11.991Z,18.98
2023-02-09T23:59:39.094Z,18.30
